sensor_id;sensor_type;location;lat;lon;timestamp;P1;durP1;ratioP1;P2;durP2;ratioP2
36995;SDS011;22905;50.340;10.776;2023-02-12T00:00:23;145.77;;;45.50;;
36995;SDS011;22905;50.340;10.776;2023-02-12T00:05:23;121.35;;;47.25;;
36995;SDS011;22905;50.340;10.776;2023-02-12T00:10:24;122.15;;;44.03;;
36995;SDS011;22905;50.340;10.776;2023-02-12T00:15:24;117.72;;;40.00;;
36995;SDS011;22905;50.340;10.776;2023-02-12T00:20:25;116.57;;;42.57;;
36995;SDS011;22905;50.340;10.776;2023-02-12T00:25:25;112.35;;;40.80;;
36995;SDS011;22905;50.340;10.776;2023-02-12T00:30:25;114.70;;;42.72;;
36995;SDS011;22905;50.340;10.776;2023-02-12T00:35:26;120.53;;;45.38;;
36995;SDS011;22905;50.340;10.776;2023-02-12T00:40:26;153.80;;;51.08;;
36995;SDS011;22905;50.340;10.776;2023-02-12T00:45:26;144.77;;;49.92;;
36995;SDS011;22905;50.340;10.776;2023-02-12T00:50:26;162.57;;;53.55;;
36995;SDS011;22905;50.340;10.776;2023-02-12T00:55:27;155.50;;;54.40;;
36995;SDS011;22905;50.340;10.776;2023-02-12T01:00:27;169.17;;;58.80;;
36995;SDS011;22905;50.340;10.776;2023-02-12T01:05:27;163.93;;;57.53;;
36995;SDS011;22905;50.340;10.776;2023-02-12T01:10:28;176.02;;;59.85;;
36995;SDS011;22905;50.340;10.776;2023-02-12T01:15:28;190.63;;;58.05;;
36995;SDS011;22905;50.340;10.776;2023-02-12T01:20:29;173.77;;;59.67;;
36995;SDS011;22905;50.340;10.776;2023-02-12T01:25:29;182.00;;;58.42;;
36995;SDS011;22905;50.340;10.776;2023-02-12T01:30:29;165.15;;;54.55;;
36995;SDS011;22905;50.340;10.776;2023-02-12T01:35:29;157.23;;;52.17;;
36995;SDS011;22905;50.340;10.776;2023-02-12T01:40:30;145.20;;;51.07;;
36995;SDS011;22905;50.340;10.776;2023-02-12T01:50:40;146.25;;;46.47;;
36995;SDS011;22905;50.340;10.776;2023-02-12T01:55:42;129.52;;;45.15;;
36995;SDS011;22905;50.340;10.776;2023-02-12T02:00:42;150.23;;;46.70;;
36995;SDS011;22905;50.340;10.776;2023-02-12T02:05:55;141.00;;;43.23;;
36995;SDS011;22905;50.340;10.776;2023-02-12T02:11:02;118.35;;;41.65;;
36995;SDS011;22905;50.340;10.776;2023-02-12T02:16:24;133.18;;;43.67;;
36995;SDS011;22905;50.340;10.776;2023-02-12T02:27:01;132.23;;;42.80;;
36995;SDS011;22905;50.340;10.776;2023-02-12T02:32:07;127.97;;;44.38;;
36995;SDS011;22905;50.340;10.776;2023-02-12T02:37:13;123.50;;;43.08;;
36995;SDS011;22905;50.340;10.776;2023-02-12T02:42:22;121.00;;;42.05;;
36995;SDS011;22905;50.340;10.776;2023-02-12T02:47:30;135.18;;;44.45;;
36995;SDS011;22905;50.340;10.776;2023-02-12T02:52:35;136.88;;;42.38;;
36995;SDS011;22905;50.340;10.776;2023-02-12T02:57:50;127.28;;;40.45;;
36995;SDS011;22905;50.340;10.776;2023-02-12T03:02:55;118.15;;;43.08;;
36995;SDS011;22905;50.340;10.776;2023-02-12T03:08:00;119.18;;;37.33;;
36995;SDS011;22905;50.340;10.776;2023-02-12T03:13:42;122.05;;;40.17;;
36995;SDS011;22905;50.340;10.776;2023-02-12T03:19:07;115.15;;;38.15;;
36995;SDS011;22905;50.340;10.776;2023-02-12T03:24:21;129.43;;;35.78;;
36995;SDS011;22905;50.340;10.776;2023-02-12T03:29:25;110.25;;;35.20;;
36995;SDS011;22905;50.340;10.776;2023-02-12T03:34:29;113.17;;;40.50;;
36995;SDS011;22905;50.340;10.776;2023-02-12T03:39:44;139.63;;;44.78;;
36995;SDS011;22905;50.340;10.776;2023-02-12T03:44:55;164.32;;;51.15;;
36995;SDS011;22905;50.340;10.776;2023-02-12T03:50:16;163.73;;;53.13;;
36995;SDS011;22905;50.340;10.776;2023-02-12T03:55:18;153.98;;;51.97;;
36995;SDS011;22905;50.340;10.776;2023-02-12T04:00:20;149.52;;;47.15;;
36995;SDS011;22905;50.340;10.776;2023-02-12T04:05:23;141.05;;;44.42;;
36995;SDS011;22905;50.340;10.776;2023-02-12T04:10:28;132.80;;;47.00;;
36995;SDS011;22905;50.340;10.776;2023-02-12T04:15:50;142.68;;;47.78;;
36995;SDS011;22905;50.340;10.776;2023-02-12T04:21:06;144.45;;;47.80;;
36995;SDS011;22905;50.340;10.776;2023-02-12T04:26:16;130.27;;;42.97;;
36995;SDS011;22905;50.340;10.776;2023-02-12T04:31:32;122.32;;;41.33;;
36995;SDS011;22905;50.340;10.776;2023-02-12T04:36:56;142.48;;;41.65;;
36995;SDS011;22905;50.340;10.776;2023-02-12T04:41:59;134.50;;;45.35;;
36995;SDS011;22905;50.340;10.776;2023-02-12T04:47:00;141.23;;;48.15;;
36995;SDS011;22905;50.340;10.776;2023-02-12T04:52:00;155.73;;;49.63;;
36995;SDS011;22905;50.340;10.776;2023-02-12T04:57:01;149.05;;;51.15;;
36995;SDS011;22905;50.340;10.776;2023-02-12T05:02:02;133.73;;;45.60;;
36995;SDS011;22905;50.340;10.776;2023-02-12T05:07:02;139.75;;;48.67;;
36995;SDS011;22905;50.340;10.776;2023-02-12T05:12:02;144.52;;;50.38;;
36995;SDS011;22905;50.340;10.776;2023-02-12T05:17:03;139.53;;;49.27;;
36995;SDS011;22905;50.340;10.776;2023-02-12T05:22:03;134.35;;;44.60;;
36995;SDS011;22905;50.340;10.776;2023-02-12T05:27:03;153.63;;;49.40;;
36995;SDS011;22905;50.340;10.776;2023-02-12T05:32:03;165.00;;;48.33;;
36995;SDS011;22905;50.340;10.776;2023-02-12T05:37:05;142.10;;;42.40;;
36995;SDS011;22905;50.340;10.776;2023-02-12T05:42:06;128.30;;;41.28;;
36995;SDS011;22905;50.340;10.776;2023-02-12T05:47:06;116.40;;;39.33;;
36995;SDS011;22905;50.340;10.776;2023-02-12T05:52:06;119.13;;;36.67;;
36995;SDS011;22905;50.340;10.776;2023-02-12T05:57:06;106.80;;;33.80;;
36995;SDS011;22905;50.340;10.776;2023-02-12T06:02:07;127.22;;;38.22;;
36995;SDS011;22905;50.340;10.776;2023-02-12T06:07:07;116.82;;;42.35;;
36995;SDS011;22905;50.340;10.776;2023-02-12T06:12:07;126.70;;;44.67;;
36995;SDS011;22905;50.340;10.776;2023-02-12T06:17:08;136.50;;;43.93;;
36995;SDS011;22905;50.340;10.776;2023-02-12T06:22:08;168.60;;;53.55;;
36995;SDS011;22905;50.340;10.776;2023-02-12T06:27:08;145.87;;;44.63;;
36995;SDS011;22905;50.340;10.776;2023-02-12T06:32:08;148.15;;;45.28;;
36995;SDS011;22905;50.340;10.776;2023-02-12T06:37:12;147.27;;;48.78;;
36995;SDS011;22905;50.340;10.776;2023-02-12T06:42:12;153.00;;;46.23;;
36995;SDS011;22905;50.340;10.776;2023-02-12T06:47:13;144.55;;;45.58;;
36995;SDS011;22905;50.340;10.776;2023-02-12T06:52:13;132.07;;;44.05;;
36995;SDS011;22905;50.340;10.776;2023-02-12T06:57:13;153.73;;;50.38;;
36995;SDS011;22905;50.340;10.776;2023-02-12T07:02:14;137.35;;;46.58;;
36995;SDS011;22905;50.340;10.776;2023-02-12T07:07:14;139.40;;;45.53;;
36995;SDS011;22905;50.340;10.776;2023-02-12T07:12:14;133.70;;;44.27;;
36995;SDS011;22905;50.340;10.776;2023-02-12T07:17:15;132.60;;;41.83;;
36995;SDS011;22905;50.340;10.776;2023-02-12T07:22:15;113.28;;;39.70;;
36995;SDS011;22905;50.340;10.776;2023-02-12T07:27:15;140.17;;;42.50;;
36995;SDS011;22905;50.340;10.776;2023-02-12T07:32:15;151.15;;;49.90;;
36995;SDS011;22905;50.340;10.776;2023-02-12T07:37:16;132.75;;;44.38;;
36995;SDS011;22905;50.340;10.776;2023-02-12T07:42:21;115.32;;;41.60;;
36995;SDS011;22905;50.340;10.776;2023-02-12T07:47:21;104.70;;;38.43;;
36995;SDS011;22905;50.340;10.776;2023-02-12T07:52:22;107.93;;;41.40;;
36995;SDS011;22905;50.340;10.776;2023-02-12T07:57:22;99.47;;;34.97;;
36995;SDS011;22905;50.340;10.776;2023-02-12T08:02:22;101.57;;;33.63;;
36995;SDS011;22905;50.340;10.776;2023-02-12T08:07:24;99.33;;;32.90;;
36995;SDS011;22905;50.340;10.776;2023-02-12T08:12:24;100.30;;;33.03;;
36995;SDS011;22905;50.340;10.776;2023-02-12T08:17:25;96.20;;;33.63;;
36995;SDS011;22905;50.340;10.776;2023-02-12T08:22:25;88.10;;;31.58;;
36995;SDS011;22905;50.340;10.776;2023-02-12T08:27:25;86.18;;;33.50;;
36995;SDS011;22905;50.340;10.776;2023-02-12T08:32:26;90.93;;;33.77;;
36995;SDS011;22905;50.340;10.776;2023-02-12T08:37:28;80.95;;;31.00;;
36995;SDS011;22905;50.340;10.776;2023-02-12T08:42:28;95.38;;;37.78;;
36995;SDS011;22905;50.340;10.776;2023-02-12T08:47:28;83.50;;;32.50;;
36995;SDS011;22905;50.340;10.776;2023-02-12T08:52:29;78.57;;;31.05;;
36995;SDS011;22905;50.340;10.776;2023-02-12T08:57:29;86.30;;;35.60;;
36995;SDS011;22905;50.340;10.776;2023-02-12T09:02:29;103.72;;;39.95;;
36995;SDS011;22905;50.340;10.776;2023-02-12T09:07:30;94.18;;;37.35;;
36995;SDS011;22905;50.340;10.776;2023-02-12T09:12:30;93.43;;;34.90;;
36995;SDS011;22905;50.340;10.776;2023-02-12T09:17:31;93.60;;;32.50;;
36995;SDS011;22905;50.340;10.776;2023-02-12T09:22:31;88.00;;;34.85;;
36995;SDS011;22905;50.340;10.776;2023-02-12T09:27:31;94.32;;;36.88;;
36995;SDS011;22905;50.340;10.776;2023-02-12T09:32:32;87.93;;;34.38;;
36995;SDS011;22905;50.340;10.776;2023-02-12T09:37:32;102.40;;;36.38;;
36995;SDS011;22905;50.340;10.776;2023-02-12T09:42:43;102.05;;;36.88;;
36995;SDS011;22905;50.340;10.776;2023-02-12T09:48:14;110.78;;;37.53;;
36995;SDS011;22905;50.340;10.776;2023-02-12T09:53:28;96.93;;;35.20;;
36995;SDS011;22905;50.340;10.776;2023-02-12T09:58:34;95.47;;;34.40;;
36995;SDS011;22905;50.340;10.776;2023-02-12T10:03:38;91.05;;;33.63;;
36995;SDS011;22905;50.340;10.776;2023-02-12T10:08:40;89.80;;;32.75;;
36995;SDS011;22905;50.340;10.776;2023-02-12T10:13:55;97.60;;;36.25;;
36995;SDS011;22905;50.340;10.776;2023-02-12T10:19:10;100.63;;;34.17;;
36995;SDS011;22905;50.340;10.776;2023-02-12T10:29:32;90.15;;;31.08;;
36995;SDS011;22905;50.340;10.776;2023-02-12T10:34:36;69.03;;;23.57;;
36995;SDS011;22905;50.340;10.776;2023-02-12T10:39:40;92.53;;;30.67;;
36995;SDS011;22905;50.340;10.776;2023-02-12T10:44:42;80.78;;;27.95;;
36995;SDS011;22905;50.340;10.776;2023-02-12T10:49:43;81.85;;;27.33;;
36995;SDS011;22905;50.340;10.776;2023-02-12T10:54:44;86.18;;;28.95;;
36995;SDS011;22905;50.340;10.776;2023-02-12T10:59:49;87.47;;;30.52;;
36995;SDS011;22905;50.340;10.776;2023-02-12T11:04:52;84.05;;;31.67;;
36995;SDS011;22905;50.340;10.776;2023-02-12T11:09:54;80.43;;;27.23;;
36995;SDS011;22905;50.340;10.776;2023-02-12T11:14:59;90.87;;;29.57;;
36995;SDS011;22905;50.340;10.776;2023-02-12T11:25:15;90.03;;;29.67;;
36995;SDS011;22905;50.340;10.776;2023-02-12T11:30:17;89.30;;;31.45;;
36995;SDS011;22905;50.340;10.776;2023-02-12T11:35:20;75.88;;;26.00;;
36995;SDS011;22905;50.340;10.776;2023-02-12T11:40:30;73.05;;;26.77;;
36995;SDS011;22905;50.340;10.776;2023-02-12T11:45:35;65.47;;;24.25;;
36995;SDS011;22905;50.340;10.776;2023-02-12T11:50:51;67.20;;;23.73;;
36995;SDS011;22905;50.340;10.776;2023-02-12T11:55:57;66.40;;;22.52;;
36995;SDS011;22905;50.340;10.776;2023-02-12T12:06:26;72.00;;;25.45;;
36995;SDS011;22905;50.340;10.776;2023-02-12T12:16:35;66.07;;;22.55;;
36995;SDS011;22905;50.340;10.776;2023-02-12T12:22:41;68.93;;;23.42;;
36995;SDS011;22905;50.340;10.776;2023-02-12T12:33:05;66.97;;;25.58;;
36995;SDS011;22905;50.340;10.776;2023-02-12T12:38:35;54.58;;;21.63;;
36995;SDS011;22905;50.340;10.776;2023-02-12T12:43:54;68.82;;;24.27;;
36995;SDS011;22905;50.340;10.776;2023-02-12T13:20:59;56.25;;;22.27;;
36995;SDS011;22905;50.340;10.776;2023-02-12T13:26:08;66.90;;;23.77;;
36995;SDS011;22905;50.340;10.776;2023-02-12T13:31:17;65.25;;;23.30;;
36995;SDS011;22905;50.340;10.776;2023-02-12T13:36:20;69.38;;;26.40;;
36995;SDS011;22905;50.340;10.776;2023-02-12T13:41:20;72.18;;;25.60;;
36995;SDS011;22905;50.340;10.776;2023-02-12T13:51:30;63.40;;;23.05;;
36995;SDS011;22905;50.340;10.776;2023-02-12T14:01:44;84.13;;;28.60;;
36995;SDS011;22905;50.340;10.776;2023-02-12T14:06:56;73.30;;;24.10;;
36995;SDS011;22905;50.340;10.776;2023-02-12T14:11:58;69.93;;;28.20;;
36995;SDS011;22905;50.340;10.776;2023-02-12T14:27:29;73.93;;;27.98;;
36995;SDS011;22905;50.340;10.776;2023-02-12T14:37:49;68.63;;;24.08;;
36995;SDS011;22905;50.340;10.776;2023-02-12T14:42:54;84.35;;;28.25;;
36995;SDS011;22905;50.340;10.776;2023-02-12T14:47:55;68.68;;;22.60;;
36995;SDS011;22905;50.340;10.776;2023-02-12T14:53:02;70.53;;;22.95;;
36995;SDS011;22905;50.340;10.776;2023-02-12T14:58:14;91.35;;;31.95;;
36995;SDS011;22905;50.340;10.776;2023-02-12T15:03:19;59.13;;;21.97;;
36995;SDS011;22905;50.340;10.776;2023-02-12T15:08:31;64.63;;;21.80;;
36995;SDS011;22905;50.340;10.776;2023-02-12T15:13:41;73.73;;;27.63;;
36995;SDS011;22905;50.340;10.776;2023-02-12T15:18:59;65.22;;;26.30;;
36995;SDS011;22905;50.340;10.776;2023-02-12T15:24:07;65.60;;;24.35;;
36995;SDS011;22905;50.340;10.776;2023-02-12T15:29:20;74.95;;;25.55;;
36995;SDS011;22905;50.340;10.776;2023-02-12T15:34:24;62.40;;;20.70;;
36995;SDS011;22905;50.340;10.776;2023-02-12T15:39:26;57.95;;;22.90;;
36995;SDS011;22905;50.340;10.776;2023-02-12T15:44:28;57.28;;;20.73;;
36995;SDS011;22905;50.340;10.776;2023-02-12T15:54:34;46.20;;;19.40;;
36995;SDS011;22905;50.340;10.776;2023-02-12T15:59:36;34.88;;;14.75;;
36995;SDS011;22905;50.340;10.776;2023-02-12T16:04:36;33.72;;;14.30;;
36995;SDS011;22905;50.340;10.776;2023-02-12T16:09:37;49.28;;;17.52;;
36995;SDS011;22905;50.340;10.776;2023-02-12T16:19:51;35.92;;;13.55;;
36995;SDS011;22905;50.340;10.776;2023-02-12T16:24:55;32.13;;;13.10;;
36995;SDS011;22905;50.340;10.776;2023-02-12T16:29:57;32.23;;;13.83;;
36995;SDS011;22905;50.340;10.776;2023-02-12T16:35:01;30.80;;;12.65;;
36995;SDS011;22905;50.340;10.776;2023-02-12T16:50:23;29.00;;;11.77;;
36995;SDS011;22905;50.340;10.776;2023-02-12T16:55:25;44.75;;;16.38;;
36995;SDS011;22905;50.340;10.776;2023-02-12T17:00:25;36.25;;;16.00;;
36995;SDS011;22905;50.340;10.776;2023-02-12T17:05:25;36.97;;;14.83;;
36995;SDS011;22905;50.340;10.776;2023-02-12T17:10:25;45.67;;;18.67;;
36995;SDS011;22905;50.340;10.776;2023-02-12T17:15:30;74.13;;;29.05;;
36995;SDS011;22905;50.340;10.776;2023-02-12T17:20:33;64.28;;;27.25;;
36995;SDS011;22905;50.340;10.776;2023-02-12T17:25:33;61.13;;;27.45;;
36995;SDS011;22905;50.340;10.776;2023-02-12T17:30:35;59.40;;;29.42;;
36995;SDS011;22905;50.340;10.776;2023-02-12T17:35:37;57.95;;;27.73;;
36995;SDS011;22905;50.340;10.776;2023-02-12T17:40:37;59.85;;;24.98;;
36995;SDS011;22905;50.340;10.776;2023-02-12T17:45:41;59.97;;;26.63;;
36995;SDS011;22905;50.340;10.776;2023-02-12T17:50:42;50.17;;;23.23;;
36995;SDS011;22905;50.340;10.776;2023-02-12T17:55:42;45.88;;;19.63;;
36995;SDS011;22905;50.340;10.776;2023-02-12T18:00:43;50.92;;;20.40;;
36995;SDS011;22905;50.340;10.776;2023-02-12T18:05:43;59.63;;;24.73;;
36995;SDS011;22905;50.340;10.776;2023-02-12T18:10:44;55.00;;;25.20;;
36995;SDS011;22905;50.340;10.776;2023-02-12T18:15:45;63.30;;;27.53;;
36995;SDS011;22905;50.340;10.776;2023-02-12T18:20:45;60.47;;;23.23;;
36995;SDS011;22905;50.340;10.776;2023-02-12T18:25:45;83.03;;;33.63;;
36995;SDS011;22905;50.340;10.776;2023-02-12T18:30:53;69.70;;;29.90;;
36995;SDS011;22905;50.340;10.776;2023-02-12T18:35:58;61.30;;;27.77;;
36995;SDS011;22905;50.340;10.776;2023-02-12T18:41:10;64.70;;;27.00;;
36995;SDS011;22905;50.340;10.776;2023-02-12T18:46:13;65.43;;;24.30;;
36995;SDS011;22905;50.340;10.776;2023-02-12T18:51:17;63.08;;;22.95;;
36995;SDS011;22905;50.340;10.776;2023-02-12T18:56:21;57.60;;;21.83;;
36995;SDS011;22905;50.340;10.776;2023-02-12T19:01:22;128.48;;;47.10;;
36995;SDS011;22905;50.340;10.776;2023-02-12T19:06:23;69.70;;;29.15;;
36995;SDS011;22905;50.340;10.776;2023-02-12T19:11:23;69.30;;;30.45;;
36995;SDS011;22905;50.340;10.776;2023-02-12T19:16:24;68.22;;;26.80;;
36995;SDS011;22905;50.340;10.776;2023-02-12T19:21:25;70.80;;;31.42;;
36995;SDS011;22905;50.340;10.776;2023-02-12T19:26:25;81.97;;;30.88;;
36995;SDS011;22905;50.340;10.776;2023-02-12T19:31:36;106.40;;;34.13;;
36995;SDS011;22905;50.340;10.776;2023-02-12T19:36:38;122.88;;;36.38;;
36995;SDS011;22905;50.340;10.776;2023-02-12T19:41:38;133.93;;;36.73;;
36995;SDS011;22905;50.340;10.776;2023-02-12T19:46:41;132.25;;;37.33;;
36995;SDS011;22905;50.340;10.776;2023-02-12T19:51:42;197.07;;;50.08;;
36995;SDS011;22905;50.340;10.776;2023-02-12T19:56:43;164.68;;;47.40;;
36995;SDS011;22905;50.340;10.776;2023-02-12T20:01:43;150.27;;;44.60;;
36995;SDS011;22905;50.340;10.776;2023-02-12T20:06:44;154.68;;;45.15;;
36995;SDS011;22905;50.340;10.776;2023-02-12T20:11:45;133.23;;;43.30;;
36995;SDS011;22905;50.340;10.776;2023-02-12T20:16:45;114.63;;;37.67;;
36995;SDS011;22905;50.340;10.776;2023-02-12T20:21:47;112.53;;;33.75;;
36995;SDS011;22905;50.340;10.776;2023-02-12T20:26:53;101.63;;;34.33;;
36995;SDS011;22905;50.340;10.776;2023-02-12T20:31:53;88.97;;;26.48;;
36995;SDS011;22905;50.340;10.776;2023-02-12T20:36:54;71.88;;;24.15;;
36995;SDS011;22905;50.340;10.776;2023-02-12T20:41:54;85.55;;;29.60;;
36995;SDS011;22905;50.340;10.776;2023-02-12T20:46:54;85.80;;;28.08;;
36995;SDS011;22905;50.340;10.776;2023-02-12T20:51:56;65.57;;;23.05;;
36995;SDS011;22905;50.340;10.776;2023-02-12T20:56:56;62.90;;;23.57;;
36995;SDS011;22905;50.340;10.776;2023-02-12T21:01:56;67.50;;;24.58;;
36995;SDS011;22905;50.340;10.776;2023-02-12T21:06:57;70.20;;;24.08;;
36995;SDS011;22905;50.340;10.776;2023-02-12T21:11:57;56.80;;;21.65;;
36995;SDS011;22905;50.340;10.776;2023-02-12T21:16:58;62.88;;;22.17;;
36995;SDS011;22905;50.340;10.776;2023-02-12T21:21:58;60.15;;;21.42;;
36995;SDS011;22905;50.340;10.776;2023-02-12T21:26:58;52.90;;;20.27;;
36995;SDS011;22905;50.340;10.776;2023-02-12T21:31:58;44.10;;;19.00;;
36995;SDS011;22905;50.340;10.776;2023-02-12T21:37:00;46.42;;;19.80;;
36995;SDS011;22905;50.340;10.776;2023-02-12T21:42:01;40.20;;;16.67;;
36995;SDS011;22905;50.340;10.776;2023-02-12T21:47:02;39.83;;;16.13;;
36995;SDS011;22905;50.340;10.776;2023-02-12T21:52:03;32.55;;;14.27;;
36995;SDS011;22905;50.340;10.776;2023-02-12T21:57:05;45.95;;;18.45;;
36995;SDS011;22905;50.340;10.776;2023-02-12T22:02:07;45.47;;;17.17;;
36995;SDS011;22905;50.340;10.776;2023-02-12T22:07:08;37.63;;;16.02;;
36995;SDS011;22905;50.340;10.776;2023-02-12T22:12:08;38.67;;;16.88;;
36995;SDS011;22905;50.340;10.776;2023-02-12T22:17:09;34.78;;;14.98;;
36995;SDS011;22905;50.340;10.776;2023-02-12T22:22:09;35.78;;;16.73;;
36995;SDS011;22905;50.340;10.776;2023-02-12T22:27:09;32.25;;;13.85;;
36995;SDS011;22905;50.340;10.776;2023-02-12T22:32:09;34.43;;;15.50;;
36995;SDS011;22905;50.340;10.776;2023-02-12T22:37:10;31.00;;;14.52;;
36995;SDS011;22905;50.340;10.776;2023-02-12T22:42:10;28.50;;;14.23;;
36995;SDS011;22905;50.340;10.776;2023-02-12T22:47:10;31.97;;;13.07;;
36995;SDS011;22905;50.340;10.776;2023-02-12T22:52:11;35.90;;;14.13;;
36995;SDS011;22905;50.340;10.776;2023-02-12T22:57:11;35.83;;;13.97;;
36995;SDS011;22905;50.340;10.776;2023-02-12T23:02:11;33.65;;;15.18;;
36995;SDS011;22905;50.340;10.776;2023-02-12T23:07:12;30.27;;;12.80;;
36995;SDS011;22905;50.340;10.776;2023-02-12T23:12:12;30.40;;;13.20;;
36995;SDS011;22905;50.340;10.776;2023-02-12T23:17:12;33.27;;;12.97;;
36995;SDS011;22905;50.340;10.776;2023-02-12T23:22:12;27.38;;;12.20;;
36995;SDS011;22905;50.340;10.776;2023-02-12T23:27:13;37.95;;;15.35;;
36995;SDS011;22905;50.340;10.776;2023-02-12T23:32:13;27.47;;;12.60;;
36995;SDS011;22905;50.340;10.776;2023-02-12T23:37:13;35.42;;;14.60;;
36995;SDS011;22905;50.340;10.776;2023-02-12T23:42:14;33.08;;;16.20;;
36995;SDS011;22905;50.340;10.776;2023-02-12T23:47:14;34.78;;;14.25;;
36995;SDS011;22905;50.340;10.776;2023-02-12T23:52:14;33.80;;;15.15;;
36995;SDS011;22905;50.340;10.776;2023-02-12T23:57:15;33.10;;;15.10;;
